sensor_id;sensor_type;location;lat;lon;timestamp;temperature;humidity
35325;DHT22;35135;47.510;19.036;2023-04-25T00:00:46;23.70;51.90
35325;DHT22;35135;47.510;19.036;2023-04-25T00:03:12;23.60;52.00
35325;DHT22;35135;47.510;19.036;2023-04-25T00:05:37;23.70;52.50
35325;DHT22;35135;47.510;19.036;2023-04-25T00:08:04;23.60;51.90
35325;DHT22;35135;47.510;19.036;2023-04-25T00:10:30;23.60;51.70
35325;DHT22;35135;47.510;19.036;2023-04-25T00:12:57;23.60;52.10
35325;DHT22;35135;47.510;19.036;2023-04-25T00:15:23;23.60;51.90
35325;DHT22;35135;47.510;19.036;2023-04-25T00:17:49;23.60;51.70
35325;DHT22;35135;47.510;19.036;2023-04-25T00:20:18;23.60;51.70
35325;DHT22;35135;47.510;19.036;2023-04-25T00:22:43;23.60;51.80
35325;DHT22;35135;47.510;19.036;2023-04-25T00:25:09;23.60;51.80
35325;DHT22;35135;47.510;19.036;2023-04-25T00:27:35;23.60;51.90
35325;DHT22;35135;47.510;19.036;2023-04-25T00:30:01;23.60;51.80
35325;DHT22;35135;47.510;19.036;2023-04-25T00:32:26;23.60;51.90
35325;DHT22;35135;47.510;19.036;2023-04-25T00:34:52;23.60;51.80
35325;DHT22;35135;47.510;19.036;2023-04-25T00:37:18;23.60;51.70
35325;DHT22;35135;47.510;19.036;2023-04-25T00:39:43;23.60;51.90
35325;DHT22;35135;47.510;19.036;2023-04-25T00:42:10;23.60;51.70
35325;DHT22;35135;47.510;19.036;2023-04-25T00:44:37;23.60;51.60
35325;DHT22;35135;47.510;19.036;2023-04-25T00:47:03;23.60;51.70
35325;DHT22;35135;47.510;19.036;2023-04-25T00:49:29;23.60;51.80
35325;DHT22;35135;47.510;19.036;2023-04-25T00:51:55;23.60;51.80
35325;DHT22;35135;47.510;19.036;2023-04-25T00:54:21;23.60;51.80
35325;DHT22;35135;47.510;19.036;2023-04-25T00:56:47;23.60;51.70
35325;DHT22;35135;47.510;19.036;2023-04-25T00:59:15;23.50;51.50
35325;DHT22;35135;47.510;19.036;2023-04-25T01:01:41;23.60;51.60
35325;DHT22;35135;47.510;19.036;2023-04-25T01:04:07;23.50;51.60
35325;DHT22;35135;47.510;19.036;2023-04-25T01:06:33;23.50;51.60
35325;DHT22;35135;47.510;19.036;2023-04-25T01:08:59;23.50;51.80
35325;DHT22;35135;47.510;19.036;2023-04-25T01:11:25;23.60;51.60
35325;DHT22;35135;47.510;19.036;2023-04-25T01:13:51;23.50;51.50
35325;DHT22;35135;47.510;19.036;2023-04-25T01:16:16;23.60;51.60
35325;DHT22;35135;47.510;19.036;2023-04-25T01:18:42;23.50;51.40
35325;DHT22;35135;47.510;19.036;2023-04-25T01:21:10;23.50;51.40
35325;DHT22;35135;47.510;19.036;2023-04-25T01:23:40;23.50;51.60
35325;DHT22;35135;47.510;19.036;2023-04-25T01:26:06;23.50;51.50
35325;DHT22;35135;47.510;19.036;2023-04-25T01:28:34;23.50;51.50
35325;DHT22;35135;47.510;19.036;2023-04-25T01:31:00;23.50;51.50
35325;DHT22;35135;47.510;19.036;2023-04-25T01:33:26;23.50;51.50
35325;DHT22;35135;47.510;19.036;2023-04-25T01:35:52;23.50;51.50
35325;DHT22;35135;47.510;19.036;2023-04-25T01:38:18;23.50;51.60
35325;DHT22;35135;47.510;19.036;2023-04-25T01:40:45;23.50;51.60
35325;DHT22;35135;47.510;19.036;2023-04-25T01:43:12;23.50;51.80
35325;DHT22;35135;47.510;19.036;2023-04-25T01:45:40;23.50;51.60
35325;DHT22;35135;47.510;19.036;2023-04-25T01:48:08;23.50;51.60
35325;DHT22;35135;47.510;19.036;2023-04-25T01:50:33;23.50;51.50
35325;DHT22;35135;47.510;19.036;2023-04-25T01:52:59;23.50;51.50
35325;DHT22;35135;47.510;19.036;2023-04-25T01:55:25;23.50;51.60
35325;DHT22;35135;47.510;19.036;2023-04-25T01:57:51;23.50;51.60
35325;DHT22;35135;47.510;19.036;2023-04-25T02:00:17;23.50;51.50
35325;DHT22;35135;47.510;19.036;2023-04-25T02:02:43;23.50;51.40
35325;DHT22;35135;47.510;19.036;2023-04-25T02:05:08;23.40;51.50
35325;DHT22;35135;47.510;19.036;2023-04-25T02:07:34;23.40;51.70
35325;DHT22;35135;47.510;19.036;2023-04-25T02:10:00;23.40;51.80
35325;DHT22;35135;47.510;19.036;2023-04-25T02:12:27;23.50;51.60
35325;DHT22;35135;47.510;19.036;2023-04-25T02:14:53;23.40;51.70
35325;DHT22;35135;47.510;19.036;2023-04-25T02:17:19;23.40;51.70
35325;DHT22;35135;47.510;19.036;2023-04-25T02:19:44;23.40;51.50
35325;DHT22;35135;47.510;19.036;2023-04-25T02:22:10;23.40;51.60
35325;DHT22;35135;47.510;19.036;2023-04-25T02:24:36;23.40;51.60
35325;DHT22;35135;47.510;19.036;2023-04-25T02:27:02;23.40;51.60
35325;DHT22;35135;47.510;19.036;2023-04-25T02:29:29;23.40;51.50
35325;DHT22;35135;47.510;19.036;2023-04-25T02:31:55;23.40;51.60
35325;DHT22;35135;47.510;19.036;2023-04-25T02:34:20;23.40;51.60
35325;DHT22;35135;47.510;19.036;2023-04-25T02:36:47;23.40;51.50
35325;DHT22;35135;47.510;19.036;2023-04-25T02:39:13;23.40;51.50
35325;DHT22;35135;47.510;19.036;2023-04-25T02:41:38;23.40;51.50
35325;DHT22;35135;47.510;19.036;2023-04-25T02:44:04;23.40;51.60
35325;DHT22;35135;47.510;19.036;2023-04-25T02:46:30;23.40;51.40
35325;DHT22;35135;47.510;19.036;2023-04-25T02:48:55;23.40;51.60
35325;DHT22;35135;47.510;19.036;2023-04-25T02:51:21;23.40;51.50
35325;DHT22;35135;47.510;19.036;2023-04-25T02:53:47;23.40;51.60
35325;DHT22;35135;47.510;19.036;2023-04-25T02:56:12;23.40;51.50
35325;DHT22;35135;47.510;19.036;2023-04-25T02:58:38;23.40;51.50
35325;DHT22;35135;47.510;19.036;2023-04-25T03:01:04;23.30;51.40
35325;DHT22;35135;47.510;19.036;2023-04-25T03:03:29;23.30;51.20
35325;DHT22;35135;47.510;19.036;2023-04-25T03:05:55;23.40;51.20
35325;DHT22;35135;47.510;19.036;2023-04-25T03:08:21;23.30;51.20
35325;DHT22;35135;47.510;19.036;2023-04-25T03:10:46;23.30;51.30
35325;DHT22;35135;47.510;19.036;2023-04-25T03:13:13;23.30;51.30
35325;DHT22;35135;47.510;19.036;2023-04-25T03:15:38;23.30;51.20
35325;DHT22;35135;47.510;19.036;2023-04-25T03:18:04;23.30;51.10
35325;DHT22;35135;47.510;19.036;2023-04-25T03:20:30;23.30;51.50
35325;DHT22;35135;47.510;19.036;2023-04-25T03:22:56;23.30;51.20
35325;DHT22;35135;47.510;19.036;2023-04-25T03:25:21;23.30;51.30
35325;DHT22;35135;47.510;19.036;2023-04-25T03:27:47;23.30;51.30
35325;DHT22;35135;47.510;19.036;2023-04-25T03:30:13;23.30;51.30
35325;DHT22;35135;47.510;19.036;2023-04-25T03:32:39;23.30;51.20
35325;DHT22;35135;47.510;19.036;2023-04-25T03:35:05;23.30;51.30
35325;DHT22;35135;47.510;19.036;2023-04-25T03:37:31;23.30;51.20
35325;DHT22;35135;47.510;19.036;2023-04-25T03:39:56;23.30;51.20
35325;DHT22;35135;47.510;19.036;2023-04-25T03:42:22;23.30;51.30
35325;DHT22;35135;47.510;19.036;2023-04-25T03:44:49;23.30;51.20
35325;DHT22;35135;47.510;19.036;2023-04-25T03:47:15;23.30;51.30
35325;DHT22;35135;47.510;19.036;2023-04-25T03:49:41;23.30;51.20
35325;DHT22;35135;47.510;19.036;2023-04-25T03:52:07;23.30;51.30
35325;DHT22;35135;47.510;19.036;2023-04-25T03:54:33;23.30;51.20
35325;DHT22;35135;47.510;19.036;2023-04-25T03:56:59;23.30;51.20
35325;DHT22;35135;47.510;19.036;2023-04-25T03:59:25;23.30;51.30
35325;DHT22;35135;47.510;19.036;2023-04-25T04:01:52;23.30;51.30
35325;DHT22;35135;47.510;19.036;2023-04-25T04:04:17;23.30;51.30
35325;DHT22;35135;47.510;19.036;2023-04-25T04:06:43;23.30;51.10
35325;DHT22;35135;47.510;19.036;2023-04-25T04:09:10;23.30;51.10
35325;DHT22;35135;47.510;19.036;2023-04-25T04:11:39;23.30;51.00
35325;DHT22;35135;47.510;19.036;2023-04-25T04:14:06;23.30;51.10
35325;DHT22;35135;47.510;19.036;2023-04-25T04:16:32;23.30;51.00
35325;DHT22;35135;47.510;19.036;2023-04-25T04:18:58;23.30;51.00
35325;DHT22;35135;47.510;19.036;2023-04-25T04:21:24;23.30;50.90
35325;DHT22;35135;47.510;19.036;2023-04-25T04:23:50;23.30;51.10
35325;DHT22;35135;47.510;19.036;2023-04-25T04:26:15;23.30;51.30
35325;DHT22;35135;47.510;19.036;2023-04-25T04:28:44;23.30;51.70
35325;DHT22;35135;47.510;19.036;2023-04-25T04:31:12;23.30;51.30
35325;DHT22;35135;47.510;19.036;2023-04-25T04:33:40;23.30;51.40
35325;DHT22;35135;47.510;19.036;2023-04-25T04:36:06;23.30;52.20
35325;DHT22;35135;47.510;19.036;2023-04-25T04:38:33;23.30;51.20
35325;DHT22;35135;47.510;19.036;2023-04-25T04:40:58;23.30;51.10
35325;DHT22;35135;47.510;19.036;2023-04-25T04:43:24;23.30;51.20
35325;DHT22;35135;47.510;19.036;2023-04-25T04:45:50;23.30;51.10
35325;DHT22;35135;47.510;19.036;2023-04-25T04:48:17;23.30;51.50
35325;DHT22;35135;47.510;19.036;2023-04-25T04:50:45;23.30;51.60
35325;DHT22;35135;47.510;19.036;2023-04-25T04:53:11;23.30;51.60
35325;DHT22;35135;47.510;19.036;2023-04-25T04:55:37;23.30;51.20
35325;DHT22;35135;47.510;19.036;2023-04-25T04:58:03;23.30;51.40
35325;DHT22;35135;47.510;19.036;2023-04-25T05:00:28;23.20;51.60
35325;DHT22;35135;47.510;19.036;2023-04-25T05:02:55;23.30;52.00
35325;DHT22;35135;47.510;19.036;2023-04-25T05:05:21;23.30;51.70
35325;DHT22;35135;47.510;19.036;2023-04-25T05:07:46;23.30;51.70
35325;DHT22;35135;47.510;19.036;2023-04-25T05:10:12;23.30;51.80
35325;DHT22;35135;47.510;19.036;2023-04-25T05:12:38;23.20;51.60
35325;DHT22;35135;47.510;19.036;2023-04-25T05:15:04;23.30;52.10
35325;DHT22;35135;47.510;19.036;2023-04-25T05:17:30;23.30;51.70
35325;DHT22;35135;47.510;19.036;2023-04-25T05:19:55;23.30;51.50
35325;DHT22;35135;47.510;19.036;2023-04-25T05:22:22;23.30;51.60
35325;DHT22;35135;47.510;19.036;2023-04-25T05:24:47;23.30;51.60
35325;DHT22;35135;47.510;19.036;2023-04-25T05:27:17;23.20;51.30
35325;DHT22;35135;47.510;19.036;2023-04-25T05:29:43;23.20;51.50
35325;DHT22;35135;47.510;19.036;2023-04-25T05:32:08;23.20;51.30
35325;DHT22;35135;47.510;19.036;2023-04-25T05:34:34;23.20;51.50
35325;DHT22;35135;47.510;19.036;2023-04-25T05:37:00;23.20;51.40
35325;DHT22;35135;47.510;19.036;2023-04-25T05:39:26;23.20;51.50
35325;DHT22;35135;47.510;19.036;2023-04-25T05:41:52;23.20;51.20
35325;DHT22;35135;47.510;19.036;2023-04-25T05:44:18;23.20;50.30
35325;DHT22;35135;47.510;19.036;2023-04-25T05:46:43;23.10;50.60
35325;DHT22;35135;47.510;19.036;2023-04-25T05:49:09;23.10;50.80
35325;DHT22;35135;47.510;19.036;2023-04-25T05:51:35;23.10;50.90
35325;DHT22;35135;47.510;19.036;2023-04-25T05:54:01;23.10;51.00
35325;DHT22;35135;47.510;19.036;2023-04-25T05:56:26;23.10;51.00
35325;DHT22;35135;47.510;19.036;2023-04-25T05:58:52;23.10;51.00
35325;DHT22;35135;47.510;19.036;2023-04-25T06:01:18;23.10;50.90
35325;DHT22;35135;47.510;19.036;2023-04-25T06:03:43;23.10;50.90
35325;DHT22;35135;47.510;19.036;2023-04-25T06:06:11;23.10;50.90
35325;DHT22;35135;47.510;19.036;2023-04-25T06:08:37;23.10;50.80
35325;DHT22;35135;47.510;19.036;2023-04-25T06:11:03;23.10;50.90
35325;DHT22;35135;47.510;19.036;2023-04-25T06:13:30;23.10;50.90
35325;DHT22;35135;47.510;19.036;2023-04-25T06:15:56;23.10;50.90
35325;DHT22;35135;47.510;19.036;2023-04-25T06:18:22;23.10;51.00
35325;DHT22;35135;47.510;19.036;2023-04-25T06:20:48;23.10;50.80
35325;DHT22;35135;47.510;19.036;2023-04-25T06:23:13;23.10;50.90
35325;DHT22;35135;47.510;19.036;2023-04-25T06:25:39;23.20;50.90
35325;DHT22;35135;47.510;19.036;2023-04-25T06:28:05;23.20;50.90
35325;DHT22;35135;47.510;19.036;2023-04-25T06:30:30;23.10;50.80
35325;DHT22;35135;47.510;19.036;2023-04-25T06:32:56;23.20;50.90
35325;DHT22;35135;47.510;19.036;2023-04-25T06:35:22;23.20;50.90
35325;DHT22;35135;47.510;19.036;2023-04-25T06:37:48;23.20;50.90
35325;DHT22;35135;47.510;19.036;2023-04-25T06:40:13;23.20;50.70
35325;DHT22;35135;47.510;19.036;2023-04-25T06:42:40;23.10;50.50
35325;DHT22;35135;47.510;19.036;2023-04-25T06:45:06;23.10;50.10
35325;DHT22;35135;47.510;19.036;2023-04-25T06:47:32;23.10;50.20
35325;DHT22;35135;47.510;19.036;2023-04-25T06:49:57;23.10;50.20
35325;DHT22;35135;47.510;19.036;2023-04-25T06:52:23;23.10;50.30
35325;DHT22;35135;47.510;19.036;2023-04-25T06:54:48;23.10;50.30
35325;DHT22;35135;47.510;19.036;2023-04-25T06:57:14;23.10;50.20
35325;DHT22;35135;47.510;19.036;2023-04-25T06:59:40;23.10;50.30
35325;DHT22;35135;47.510;19.036;2023-04-25T07:02:05;23.00;50.30
35325;DHT22;35135;47.510;19.036;2023-04-25T07:04:31;23.10;50.40
35325;DHT22;35135;47.510;19.036;2023-04-25T07:06:57;23.10;50.40
35325;DHT22;35135;47.510;19.036;2023-04-25T07:09:23;23.10;50.40
35325;DHT22;35135;47.510;19.036;2023-04-25T07:11:48;23.10;50.40
35325;DHT22;35135;47.510;19.036;2023-04-25T07:14:14;23.10;50.40
35325;DHT22;35135;47.510;19.036;2023-04-25T07:16:40;23.10;50.50
35325;DHT22;35135;47.510;19.036;2023-04-25T07:19:06;23.10;50.50
35325;DHT22;35135;47.510;19.036;2023-04-25T07:21:31;23.10;50.50
35325;DHT22;35135;47.510;19.036;2023-04-25T07:23:58;23.10;50.40
35325;DHT22;35135;47.510;19.036;2023-04-25T07:26:23;23.10;50.40
35325;DHT22;35135;47.510;19.036;2023-04-25T07:28:49;23.10;50.40
35325;DHT22;35135;47.510;19.036;2023-04-25T07:31:17;23.10;50.40
35325;DHT22;35135;47.510;19.036;2023-04-25T07:33:44;23.10;50.40
35325;DHT22;35135;47.510;19.036;2023-04-25T07:36:11;23.10;50.40
35325;DHT22;35135;47.510;19.036;2023-04-25T07:38:38;23.10;50.40
35325;DHT22;35135;47.510;19.036;2023-04-25T07:41:04;23.10;50.40
35325;DHT22;35135;47.510;19.036;2023-04-25T07:43:29;23.10;50.40
35325;DHT22;35135;47.510;19.036;2023-04-25T07:45:56;23.10;50.40
35325;DHT22;35135;47.510;19.036;2023-04-25T07:48:22;23.10;50.40
35325;DHT22;35135;47.510;19.036;2023-04-25T07:50:47;23.10;50.40
35325;DHT22;35135;47.510;19.036;2023-04-25T07:53:13;23.10;50.40
35325;DHT22;35135;47.510;19.036;2023-04-25T07:55:39;23.10;50.20
35325;DHT22;35135;47.510;19.036;2023-04-25T07:58:08;23.20;50.30
35325;DHT22;35135;47.510;19.036;2023-04-25T08:00:35;23.10;50.20
35325;DHT22;35135;47.510;19.036;2023-04-25T08:03:01;23.20;51.00
35325;DHT22;35135;47.510;19.036;2023-04-25T08:05:28;23.20;50.30
35325;DHT22;35135;47.510;19.036;2023-04-25T08:07:54;23.20;50.30
35325;DHT22;35135;47.510;19.036;2023-04-25T08:10:19;23.10;50.20
35325;DHT22;35135;47.510;19.036;2023-04-25T08:12:46;23.20;50.20
35325;DHT22;35135;47.510;19.036;2023-04-25T08:15:11;23.10;50.20
35325;DHT22;35135;47.510;19.036;2023-04-25T08:17:39;23.20;50.10
35325;DHT22;35135;47.510;19.036;2023-04-25T08:20:05;23.20;50.10
35325;DHT22;35135;47.510;19.036;2023-04-25T08:22:31;23.20;50.30
35325;DHT22;35135;47.510;19.036;2023-04-25T08:24:57;23.20;50.30
35325;DHT22;35135;47.510;19.036;2023-04-25T08:27:23;23.20;50.30
35325;DHT22;35135;47.510;19.036;2023-04-25T08:29:49;23.20;50.10
35325;DHT22;35135;47.510;19.036;2023-04-25T08:32:16;23.10;50.00
35325;DHT22;35135;47.510;19.036;2023-04-25T08:34:42;23.20;50.10
35325;DHT22;35135;47.510;19.036;2023-04-25T08:37:09;23.20;50.10
35325;DHT22;35135;47.510;19.036;2023-04-25T08:39:36;23.10;50.00
35325;DHT22;35135;47.510;19.036;2023-04-25T08:42:05;23.10;50.20
35325;DHT22;35135;47.510;19.036;2023-04-25T08:44:34;23.10;50.10
35325;DHT22;35135;47.510;19.036;2023-04-25T08:47:04;23.20;50.10
35325;DHT22;35135;47.510;19.036;2023-04-25T08:49:32;23.20;50.10
35325;DHT22;35135;47.510;19.036;2023-04-25T08:52:03;23.20;50.00
35325;DHT22;35135;47.510;19.036;2023-04-25T08:54:31;23.10;50.10
35325;DHT22;35135;47.510;19.036;2023-04-25T08:57:00;23.20;50.00
35325;DHT22;35135;47.510;19.036;2023-04-25T08:59:28;23.20;50.10
35325;DHT22;35135;47.510;19.036;2023-04-25T09:01:54;23.20;50.30
35325;DHT22;35135;47.510;19.036;2023-04-25T09:04:20;23.20;50.20
35325;DHT22;35135;47.510;19.036;2023-04-25T09:06:47;23.20;50.10
35325;DHT22;35135;47.510;19.036;2023-04-25T09:09:13;23.20;50.30
35325;DHT22;35135;47.510;19.036;2023-04-25T09:11:39;23.20;50.20
35325;DHT22;35135;47.510;19.036;2023-04-25T09:14:16;23.20;50.30
35325;DHT22;35135;47.510;19.036;2023-04-25T09:17:02;23.20;50.30
35325;DHT22;35135;47.510;19.036;2023-04-25T09:19:30;23.20;50.40
35325;DHT22;35135;47.510;19.036;2023-04-25T09:22:01;23.20;50.70
35325;DHT22;35135;47.510;19.036;2023-04-25T09:24:38;23.20;51.40
35325;DHT22;35135;47.510;19.036;2023-04-25T09:27:10;23.30;50.70
35325;DHT22;35135;47.510;19.036;2023-04-25T09:29:40;23.30;50.30
35325;DHT22;35135;47.510;19.036;2023-04-25T09:32:15;23.30;50.30
35325;DHT22;35135;47.510;19.036;2023-04-25T09:34:51;23.30;50.20
35325;DHT22;35135;47.510;19.036;2023-04-25T09:37:20;23.30;50.10
35325;DHT22;35135;47.510;19.036;2023-04-25T09:39:50;23.30;50.30
35325;DHT22;35135;47.510;19.036;2023-04-25T09:42:16;23.30;50.50
35325;DHT22;35135;47.510;19.036;2023-04-25T09:44:46;23.30;50.70
35325;DHT22;35135;47.510;19.036;2023-04-25T09:47:13;23.30;50.90
35325;DHT22;35135;47.510;19.036;2023-04-25T09:49:41;23.30;50.70
35325;DHT22;35135;47.510;19.036;2023-04-25T09:52:08;23.30;50.50
35325;DHT22;35135;47.510;19.036;2023-04-25T09:54:34;23.30;50.40
35325;DHT22;35135;47.510;19.036;2023-04-25T09:57:19;23.30;50.30
35325;DHT22;35135;47.510;19.036;2023-04-25T09:59:50;23.30;50.20
35325;DHT22;35135;47.510;19.036;2023-04-25T10:02:18;23.30;50.10
35325;DHT22;35135;47.510;19.036;2023-04-25T10:04:48;23.30;50.00
35325;DHT22;35135;47.510;19.036;2023-04-25T10:07:14;23.30;50.00
35325;DHT22;35135;47.510;19.036;2023-04-25T10:09:40;23.30;50.00
35325;DHT22;35135;47.510;19.036;2023-04-25T10:12:07;23.30;49.90
35325;DHT22;35135;47.510;19.036;2023-04-25T10:14:34;23.20;49.80
35325;DHT22;35135;47.510;19.036;2023-04-25T10:17:00;23.20;49.80
35325;DHT22;35135;47.510;19.036;2023-04-25T10:19:27;23.30;49.70
35325;DHT22;35135;47.510;19.036;2023-04-25T10:22:08;23.20;49.60
35325;DHT22;35135;47.510;19.036;2023-04-25T10:24:36;23.20;49.60
35325;DHT22;35135;47.510;19.036;2023-04-25T10:27:03;23.20;49.60
35325;DHT22;35135;47.510;19.036;2023-04-25T10:29:30;23.20;49.60
35325;DHT22;35135;47.510;19.036;2023-04-25T10:31:57;23.20;49.50
35325;DHT22;35135;47.510;19.036;2023-04-25T10:34:42;23.20;49.40
35325;DHT22;35135;47.510;19.036;2023-04-25T10:37:09;23.20;49.40
35325;DHT22;35135;47.510;19.036;2023-04-25T10:39:39;23.20;49.40
35325;DHT22;35135;47.510;19.036;2023-04-25T10:42:05;23.20;49.40
35325;DHT22;35135;47.510;19.036;2023-04-25T10:44:31;23.20;49.30
35325;DHT22;35135;47.510;19.036;2023-04-25T10:46:59;23.10;49.10
35325;DHT22;35135;47.510;19.036;2023-04-25T10:49:32;23.20;49.20
35325;DHT22;35135;47.510;19.036;2023-04-25T10:52:26;23.20;49.20
35325;DHT22;35135;47.510;19.036;2023-04-25T10:54:54;23.20;49.10
35325;DHT22;35135;47.510;19.036;2023-04-25T10:57:36;23.20;49.00
35325;DHT22;35135;47.510;19.036;2023-04-25T11:02:45;23.20;48.90
35325;DHT22;35135;47.510;19.036;2023-04-25T11:05:35;23.20;48.80
35325;DHT22;35135;47.510;19.036;2023-04-25T11:08:01;23.20;48.80
35325;DHT22;35135;47.510;19.036;2023-04-25T11:10:30;23.20;48.60
35325;DHT22;35135;47.510;19.036;2023-04-25T11:12:57;23.20;48.60
35325;DHT22;35135;47.510;19.036;2023-04-25T11:15:24;23.20;48.70
35325;DHT22;35135;47.510;19.036;2023-04-25T11:17:54;23.20;48.90
35325;DHT22;35135;47.510;19.036;2023-04-25T11:20:20;23.20;49.20
35325;DHT22;35135;47.510;19.036;2023-04-25T11:22:47;23.30;49.30
35325;DHT22;35135;47.510;19.036;2023-04-25T11:25:14;23.20;49.50
35325;DHT22;35135;47.510;19.036;2023-04-25T11:30:16;23.20;49.40
35325;DHT22;35135;47.510;19.036;2023-04-25T11:32:42;23.20;49.40
35325;DHT22;35135;47.510;19.036;2023-04-25T11:35:09;23.20;49.40
35325;DHT22;35135;47.510;19.036;2023-04-25T11:37:36;23.20;49.30
35325;DHT22;35135;47.510;19.036;2023-04-25T11:40:05;23.20;49.30
35325;DHT22;35135;47.510;19.036;2023-04-25T11:42:32;23.20;49.50
35325;DHT22;35135;47.510;19.036;2023-04-25T11:44:58;23.20;49.20
35325;DHT22;35135;47.510;19.036;2023-04-25T11:47:31;23.20;49.20
35325;DHT22;35135;47.510;19.036;2023-04-25T11:50:01;23.20;49.00
35325;DHT22;35135;47.510;19.036;2023-04-25T11:52:42;23.20;48.90
35325;DHT22;35135;47.510;19.036;2023-04-25T11:55:10;23.30;49.40
35325;DHT22;35135;47.510;19.036;2023-04-25T11:57:38;23.30;48.80
35325;DHT22;35135;47.510;19.036;2023-04-25T12:00:09;23.30;48.60
35325;DHT22;35135;47.510;19.036;2023-04-25T12:02:37;23.20;48.60
35325;DHT22;35135;47.510;19.036;2023-04-25T12:05:06;23.20;48.50
35325;DHT22;35135;47.510;19.036;2023-04-25T12:07:34;23.20;48.60
35325;DHT22;35135;47.510;19.036;2023-04-25T12:10:07;23.20;48.60
35325;DHT22;35135;47.510;19.036;2023-04-25T12:12:35;23.30;48.50
35325;DHT22;35135;47.510;19.036;2023-04-25T12:15:14;23.20;48.50
35325;DHT22;35135;47.510;19.036;2023-04-25T12:17:45;23.30;48.20
35325;DHT22;35135;47.510;19.036;2023-04-25T12:20:16;23.30;48.20
35325;DHT22;35135;47.510;19.036;2023-04-25T12:22:44;23.30;48.20
35325;DHT22;35135;47.510;19.036;2023-04-25T12:25:11;23.30;48.20
35325;DHT22;35135;47.510;19.036;2023-04-25T12:27:38;23.30;48.10
35325;DHT22;35135;47.510;19.036;2023-04-25T12:30:09;23.30;47.90
35325;DHT22;35135;47.510;19.036;2023-04-25T12:32:36;23.30;47.90
35325;DHT22;35135;47.510;19.036;2023-04-25T12:35:04;23.30;47.90
35325;DHT22;35135;47.510;19.036;2023-04-25T12:37:29;23.30;47.60
35325;DHT22;35135;47.510;19.036;2023-04-25T12:39:56;23.30;47.70
35325;DHT22;35135;47.510;19.036;2023-04-25T12:42:22;23.30;47.70
35325;DHT22;35135;47.510;19.036;2023-04-25T12:44:47;23.30;47.40
35325;DHT22;35135;47.510;19.036;2023-04-25T12:47:13;23.30;47.50
35325;DHT22;35135;47.510;19.036;2023-04-25T12:49:39;23.30;47.70
35325;DHT22;35135;47.510;19.036;2023-04-25T12:52:05;23.30;47.90
35325;DHT22;35135;47.510;19.036;2023-04-25T12:54:31;23.30;47.90
35325;DHT22;35135;47.510;19.036;2023-04-25T12:56:56;23.30;47.80
35325;DHT22;35135;47.510;19.036;2023-04-25T12:59:22;23.30;47.80
35325;DHT22;35135;47.510;19.036;2023-04-25T13:01:48;23.30;47.90
35325;DHT22;35135;47.510;19.036;2023-04-25T13:04:14;23.30;47.70
35325;DHT22;35135;47.510;19.036;2023-04-25T13:06:41;23.30;47.80
35325;DHT22;35135;47.510;19.036;2023-04-25T13:09:07;23.30;47.90
35325;DHT22;35135;47.510;19.036;2023-04-25T13:11:32;23.30;48.00
35325;DHT22;35135;47.510;19.036;2023-04-25T13:13:58;23.30;48.00
35325;DHT22;35135;47.510;19.036;2023-04-25T13:16:24;23.30;48.00
35325;DHT22;35135;47.510;19.036;2023-04-25T13:18:49;23.30;47.90
35325;DHT22;35135;47.510;19.036;2023-04-25T13:21:15;23.30;48.10
35325;DHT22;35135;47.510;19.036;2023-04-25T13:23:41;23.30;48.00
35325;DHT22;35135;47.510;19.036;2023-04-25T13:26:11;23.30;47.90
35325;DHT22;35135;47.510;19.036;2023-04-25T13:28:37;23.30;48.00
35325;DHT22;35135;47.510;19.036;2023-04-25T13:31:03;23.20;48.00
35325;DHT22;35135;47.510;19.036;2023-04-25T13:33:28;23.20;48.00
35325;DHT22;35135;47.510;19.036;2023-04-25T13:35:55;23.20;48.00
35325;DHT22;35135;47.510;19.036;2023-04-25T13:38:23;23.20;48.00
35325;DHT22;35135;47.510;19.036;2023-04-25T13:40:50;23.20;48.00
35325;DHT22;35135;47.510;19.036;2023-04-25T13:43:21;23.20;48.00
35325;DHT22;35135;47.510;19.036;2023-04-25T13:45:50;23.20;48.00
35325;DHT22;35135;47.510;19.036;2023-04-25T13:48:16;23.20;48.00
35325;DHT22;35135;47.510;19.036;2023-04-25T13:50:42;23.20;48.00
35325;DHT22;35135;47.510;19.036;2023-04-25T13:53:07;23.20;48.00
35325;DHT22;35135;47.510;19.036;2023-04-25T13:55:34;23.20;48.00
35325;DHT22;35135;47.510;19.036;2023-04-25T13:58:01;23.20;48.00
35325;DHT22;35135;47.510;19.036;2023-04-25T14:00:33;23.20;48.00
35325;DHT22;35135;47.510;19.036;2023-04-25T14:02:59;23.20;48.00
35325;DHT22;35135;47.510;19.036;2023-04-25T14:05:24;23.20;48.00
35325;DHT22;35135;47.510;19.036;2023-04-25T14:07:50;23.20;48.00
35325;DHT22;35135;47.510;19.036;2023-04-25T14:10:16;23.20;48.00
35325;DHT22;35135;47.510;19.036;2023-04-25T14:12:42;23.20;48.00
35325;DHT22;35135;47.510;19.036;2023-04-25T14:15:08;23.20;48.00
35325;DHT22;35135;47.510;19.036;2023-04-25T14:17:33;23.20;48.10
35325;DHT22;35135;47.510;19.036;2023-04-25T14:19:59;23.20;48.20
35325;DHT22;35135;47.510;19.036;2023-04-25T14:22:25;23.20;48.20
35325;DHT22;35135;47.510;19.036;2023-04-25T14:24:51;23.20;48.20
35325;DHT22;35135;47.510;19.036;2023-04-25T14:27:17;23.20;48.30
35325;DHT22;35135;47.510;19.036;2023-04-25T14:29:43;23.20;48.70
35325;DHT22;35135;47.510;19.036;2023-04-25T14:32:08;23.20;48.80
35325;DHT22;35135;47.510;19.036;2023-04-25T14:34:34;23.20;48.70
35325;DHT22;35135;47.510;19.036;2023-04-25T14:37:00;23.20;48.80
35325;DHT22;35135;47.510;19.036;2023-04-25T14:39:26;23.20;48.60
35325;DHT22;35135;47.510;19.036;2023-04-25T14:41:51;23.20;48.60
35325;DHT22;35135;47.510;19.036;2023-04-25T14:44:17;23.30;48.70
35325;DHT22;35135;47.510;19.036;2023-04-25T14:46:43;23.20;48.60
35325;DHT22;35135;47.510;19.036;2023-04-25T14:49:08;23.20;48.60
35325;DHT22;35135;47.510;19.036;2023-04-25T14:51:34;23.20;49.00
35325;DHT22;35135;47.510;19.036;2023-04-25T14:54:00;23.20;48.90
35325;DHT22;35135;47.510;19.036;2023-04-25T14:56:25;23.20;49.00
35325;DHT22;35135;47.510;19.036;2023-04-25T14:58:51;23.30;49.50
35325;DHT22;35135;47.510;19.036;2023-04-25T15:01:17;23.30;49.20
35325;DHT22;35135;47.510;19.036;2023-04-25T15:03:45;23.30;49.00
35325;DHT22;35135;47.510;19.036;2023-04-25T15:06:11;23.30;49.20
35325;DHT22;35135;47.510;19.036;2023-04-25T15:08:37;23.30;49.20
35325;DHT22;35135;47.510;19.036;2023-04-25T15:11:02;23.30;49.10
35325;DHT22;35135;47.510;19.036;2023-04-25T15:13:28;23.30;49.20
35325;DHT22;35135;47.510;19.036;2023-04-25T15:15:54;23.30;49.10
35325;DHT22;35135;47.510;19.036;2023-04-25T15:18:21;23.30;49.00